sensor_id;sensor_type;location;lat;lon;timestamp;temperature;humidity
13817;DHT22;6979;52.116;5.286;2024-02-04T00:01:06;14.40;99.90
13817;DHT22;6979;52.116;5.286;2024-02-04T00:03:33;14.40;99.90
13817;DHT22;6979;52.116;5.286;2024-02-04T00:06:01;14.50;99.90
13817;DHT22;6979;52.116;5.286;2024-02-04T00:08:28;14.50;99.90
13817;DHT22;6979;52.116;5.286;2024-02-04T00:10:55;14.50;99.90
13817;DHT22;6979;52.116;5.286;2024-02-04T00:13:22;14.50;99.90
13817;DHT22;6979;52.116;5.286;2024-02-04T00:15:49;14.60;99.90
13817;DHT22;6979;52.116;5.286;2024-02-04T00:18:18;14.60;99.90
13817;DHT22;6979;52.116;5.286;2024-02-04T00:20:45;14.60;99.90
13817;DHT22;6979;52.116;5.286;2024-02-04T00:23:13;14.60;99.90
13817;DHT22;6979;52.116;5.286;2024-02-04T00:25:39;14.60;99.90
13817;DHT22;6979;52.116;5.286;2024-02-04T00:28:07;14.60;99.90
13817;DHT22;6979;52.116;5.286;2024-02-04T00:30:37;14.60;99.90
13817;DHT22;6979;52.116;5.286;2024-02-04T00:33:04;14.60;99.90
13817;DHT22;6979;52.116;5.286;2024-02-04T00:35:31;14.60;99.90
13817;DHT22;6979;52.116;5.286;2024-02-04T00:37:57;14.60;99.90
13817;DHT22;6979;52.116;5.286;2024-02-04T00:40:26;14.60;99.90
13817;DHT22;6979;52.116;5.286;2024-02-04T00:42:55;14.50;99.90
13817;DHT22;6979;52.116;5.286;2024-02-04T00:45:23;14.50;99.90
13817;DHT22;6979;52.116;5.286;2024-02-04T00:47:50;14.50;99.90
13817;DHT22;6979;52.116;5.286;2024-02-04T00:50:17;14.50;99.90
13817;DHT22;6979;52.116;5.286;2024-02-04T00:52:44;14.50;99.90
13817;DHT22;6979;52.116;5.286;2024-02-04T00:55:11;14.50;99.90
13817;DHT22;6979;52.116;5.286;2024-02-04T00:57:42;14.50;99.90
13817;DHT22;6979;52.116;5.286;2024-02-04T01:00:10;14.40;99.90
13817;DHT22;6979;52.116;5.286;2024-02-04T01:02:38;14.40;99.90
13817;DHT22;6979;52.116;5.286;2024-02-04T01:05:06;14.40;99.90
13817;DHT22;6979;52.116;5.286;2024-02-04T01:07:33;14.40;99.90
13817;DHT22;6979;52.116;5.286;2024-02-04T01:10:00;14.40;99.90
13817;DHT22;6979;52.116;5.286;2024-02-04T01:12:27;14.40;99.90
13817;DHT22;6979;52.116;5.286;2024-02-04T01:14:55;14.40;99.90
13817;DHT22;6979;52.116;5.286;2024-02-04T01:17:22;14.40;99.90
13817;DHT22;6979;52.116;5.286;2024-02-04T01:19:49;14.40;99.90
13817;DHT22;6979;52.116;5.286;2024-02-04T01:22:16;14.40;99.90
13817;DHT22;6979;52.116;5.286;2024-02-04T01:24:45;14.40;99.90
13817;DHT22;6979;52.116;5.286;2024-02-04T01:27:14;14.40;99.90
13817;DHT22;6979;52.116;5.286;2024-02-04T01:29:42;14.40;99.90
13817;DHT22;6979;52.116;5.286;2024-02-04T01:32:11;14.40;99.90
13817;DHT22;6979;52.116;5.286;2024-02-04T01:34:37;14.40;99.90
13817;DHT22;6979;52.116;5.286;2024-02-04T01:37:04;14.40;99.90
13817;DHT22;6979;52.116;5.286;2024-02-04T01:39:31;14.40;99.90
13817;DHT22;6979;52.116;5.286;2024-02-04T01:41:58;14.40;99.90
13817;DHT22;6979;52.116;5.286;2024-02-04T01:44:26;14.40;99.90
13817;DHT22;6979;52.116;5.286;2024-02-04T01:46:53;14.40;99.90
13817;DHT22;6979;52.116;5.286;2024-02-04T01:49:22;14.40;99.90
13817;DHT22;6979;52.116;5.286;2024-02-04T01:51:49;14.40;99.90
13817;DHT22;6979;52.116;5.286;2024-02-04T01:54:16;14.50;99.90
13817;DHT22;6979;52.116;5.286;2024-02-04T01:56:46;14.40;99.90
13817;DHT22;6979;52.116;5.286;2024-02-04T01:59:15;14.40;99.90
13817;DHT22;6979;52.116;5.286;2024-02-04T02:01:43;14.40;99.90
13817;DHT22;6979;52.116;5.286;2024-02-04T02:04:10;14.40;99.90
13817;DHT22;6979;52.116;5.286;2024-02-04T02:06:39;14.40;99.90
13817;DHT22;6979;52.116;5.286;2024-02-04T02:09:07;14.40;99.90
13817;DHT22;6979;52.116;5.286;2024-02-04T02:11:40;14.40;99.90
13817;DHT22;6979;52.116;5.286;2024-02-04T02:14:12;14.30;99.90
13817;DHT22;6979;52.116;5.286;2024-02-04T02:16:40;14.30;99.90
13817;DHT22;6979;52.116;5.286;2024-02-04T02:19:21;14.30;99.90
13817;DHT22;6979;52.116;5.286;2024-02-04T02:22:04;14.30;99.90
13817;DHT22;6979;52.116;5.286;2024-02-04T02:24:35;14.30;99.90
13817;DHT22;6979;52.116;5.286;2024-02-04T02:27:04;14.20;99.90
13817;DHT22;6979;52.116;5.286;2024-02-04T02:29:32;14.20;99.90
13817;DHT22;6979;52.116;5.286;2024-02-04T02:31:59;14.20;99.90
13817;DHT22;6979;52.116;5.286;2024-02-04T02:34:28;14.20;99.90
13817;DHT22;6979;52.116;5.286;2024-02-04T02:37:04;14.20;99.90
13817;DHT22;6979;52.116;5.286;2024-02-04T02:39:42;14.10;99.90
13817;DHT22;6979;52.116;5.286;2024-02-04T02:42:12;14.10;99.90
13817;DHT22;6979;52.116;5.286;2024-02-04T02:44:40;14.10;99.90
13817;DHT22;6979;52.116;5.286;2024-02-04T02:47:10;14.10;99.90
13817;DHT22;6979;52.116;5.286;2024-02-04T02:49:41;14.10;99.90
13817;DHT22;6979;52.116;5.286;2024-02-04T02:52:08;14.10;99.90
13817;DHT22;6979;52.116;5.286;2024-02-04T02:54:36;14.10;99.90
13817;DHT22;6979;52.116;5.286;2024-02-04T02:57:03;14.10;99.90
13817;DHT22;6979;52.116;5.286;2024-02-04T02:59:32;14.00;99.90
13817;DHT22;6979;52.116;5.286;2024-02-04T03:02:00;14.00;99.90
13817;DHT22;6979;52.116;5.286;2024-02-04T03:04:26;14.00;99.90
13817;DHT22;6979;52.116;5.286;2024-02-04T03:06:53;14.00;99.90
13817;DHT22;6979;52.116;5.286;2024-02-04T03:09:20;14.00;99.90
13817;DHT22;6979;52.116;5.286;2024-02-04T03:11:51;14.00;99.90
13817;DHT22;6979;52.116;5.286;2024-02-04T03:14:19;14.00;99.90
13817;DHT22;6979;52.116;5.286;2024-02-04T03:16:47;14.00;99.90
13817;DHT22;6979;52.116;5.286;2024-02-04T03:19:14;14.00;99.90
13817;DHT22;6979;52.116;5.286;2024-02-04T03:21:41;14.00;99.90
13817;DHT22;6979;52.116;5.286;2024-02-04T03:24:08;14.00;99.90
13817;DHT22;6979;52.116;5.286;2024-02-04T03:26:35;14.00;99.90
13817;DHT22;6979;52.116;5.286;2024-02-04T03:29:03;13.90;99.90
13817;DHT22;6979;52.116;5.286;2024-02-04T03:31:31;13.90;99.90
13817;DHT22;6979;52.116;5.286;2024-02-04T03:33:59;13.90;99.90
13817;DHT22;6979;52.116;5.286;2024-02-04T03:36:27;13.90;99.90
13817;DHT22;6979;52.116;5.286;2024-02-04T03:38:53;13.90;99.90
13817;DHT22;6979;52.116;5.286;2024-02-04T03:41:20;13.90;99.90
13817;DHT22;6979;52.116;5.286;2024-02-04T03:43:47;13.80;99.90
13817;DHT22;6979;52.116;5.286;2024-02-04T03:46:16;13.80;99.90
13817;DHT22;6979;52.116;5.286;2024-02-04T03:48:43;13.80;99.90
13817;DHT22;6979;52.116;5.286;2024-02-04T03:51:15;13.80;99.90
13817;DHT22;6979;52.116;5.286;2024-02-04T03:53:43;13.80;99.90
13817;DHT22;6979;52.116;5.286;2024-02-04T03:56:13;13.70;99.90
13817;DHT22;6979;52.116;5.286;2024-02-04T03:58:40;13.70;99.90
13817;DHT22;6979;52.116;5.286;2024-02-04T04:01:09;13.70;99.90
13817;DHT22;6979;52.116;5.286;2024-02-04T04:03:40;13.70;99.90
13817;DHT22;6979;52.116;5.286;2024-02-04T04:06:07;13.70;99.90
13817;DHT22;6979;52.116;5.286;2024-02-04T04:08:34;13.70;99.90
13817;DHT22;6979;52.116;5.286;2024-02-04T04:11:01;13.70;99.90
13817;DHT22;6979;52.116;5.286;2024-02-04T04:13:28;13.70;99.90
13817;DHT22;6979;52.116;5.286;2024-02-04T04:15:55;13.70;99.90
13817;DHT22;6979;52.116;5.286;2024-02-04T04:18:21;13.70;99.90
13817;DHT22;6979;52.116;5.286;2024-02-04T04:20:50;13.70;99.90
13817;DHT22;6979;52.116;5.286;2024-02-04T04:23:16;13.70;99.90
13817;DHT22;6979;52.116;5.286;2024-02-04T04:25:43;13.70;99.90
13817;DHT22;6979;52.116;5.286;2024-02-04T04:28:10;13.60;99.90
13817;DHT22;6979;52.116;5.286;2024-02-04T04:30:37;13.60;99.90
13817;DHT22;6979;52.116;5.286;2024-02-04T04:33:06;13.60;99.90
13817;DHT22;6979;52.116;5.286;2024-02-04T04:35:33;13.60;99.90
13817;DHT22;6979;52.116;5.286;2024-02-04T04:38:02;13.60;99.90
13817;DHT22;6979;52.116;5.286;2024-02-04T04:40:28;13.60;99.90
13817;DHT22;6979;52.116;5.286;2024-02-04T04:42:57;13.60;99.90
13817;DHT22;6979;52.116;5.286;2024-02-04T04:45:24;13.60;99.90
13817;DHT22;6979;52.116;5.286;2024-02-04T04:47:50;13.60;99.90
13817;DHT22;6979;52.116;5.286;2024-02-04T04:50:17;13.60;99.90
13817;DHT22;6979;52.116;5.286;2024-02-04T04:52:44;13.60;99.90
13817;DHT22;6979;52.116;5.286;2024-02-04T04:55:12;13.60;99.90
13817;DHT22;6979;52.116;5.286;2024-02-04T04:57:39;13.60;99.90
13817;DHT22;6979;52.116;5.286;2024-02-04T05:00:07;13.60;99.90
13817;DHT22;6979;52.116;5.286;2024-02-04T05:02:35;13.60;99.90
13817;DHT22;6979;52.116;5.286;2024-02-04T05:05:02;13.50;99.90
13817;DHT22;6979;52.116;5.286;2024-02-04T05:07:29;13.60;99.90
13817;DHT22;6979;52.116;5.286;2024-02-04T05:09:56;13.60;99.90
13817;DHT22;6979;52.116;5.286;2024-02-04T05:12:24;13.50;99.90
13817;DHT22;6979;52.116;5.286;2024-02-04T05:14:51;13.50;99.90
13817;DHT22;6979;52.116;5.286;2024-02-04T05:17:17;13.50;99.90
13817;DHT22;6979;52.116;5.286;2024-02-04T05:19:47;13.50;99.90
13817;DHT22;6979;52.116;5.286;2024-02-04T05:22:14;13.50;99.90
13817;DHT22;6979;52.116;5.286;2024-02-04T05:24:41;13.50;99.90
13817;DHT22;6979;52.116;5.286;2024-02-04T05:27:08;13.60;99.90
13817;DHT22;6979;52.116;5.286;2024-02-04T05:29:36;13.50;99.90
13817;DHT22;6979;52.116;5.286;2024-02-04T05:32:03;13.50;99.90
13817;DHT22;6979;52.116;5.286;2024-02-04T05:34:34;13.60;99.90
13817;DHT22;6979;52.116;5.286;2024-02-04T05:37:01;13.50;99.90
13817;DHT22;6979;52.116;5.286;2024-02-04T05:39:28;13.60;99.90
13817;DHT22;6979;52.116;5.286;2024-02-04T05:41:55;13.50;99.90
13817;DHT22;6979;52.116;5.286;2024-02-04T05:44:22;13.50;99.90
13817;DHT22;6979;52.116;5.286;2024-02-04T05:46:50;13.50;99.90
13817;DHT22;6979;52.116;5.286;2024-02-04T05:49:17;13.50;99.90
13817;DHT22;6979;52.116;5.286;2024-02-04T05:51:44;13.50;99.90
13817;DHT22;6979;52.116;5.286;2024-02-04T05:54:11;13.50;99.90
13817;DHT22;6979;52.116;5.286;2024-02-04T05:56:38;13.50;99.90
13817;DHT22;6979;52.116;5.286;2024-02-04T05:59:05;13.60;99.90
13817;DHT22;6979;52.116;5.286;2024-02-04T06:01:32;13.60;99.90
13817;DHT22;6979;52.116;5.286;2024-02-04T06:04:01;13.60;99.90
13817;DHT22;6979;52.116;5.286;2024-02-04T06:06:29;13.60;99.90
13817;DHT22;6979;52.116;5.286;2024-02-04T06:08:56;13.60;99.90
13817;DHT22;6979;52.116;5.286;2024-02-04T06:11:23;13.60;99.90
13817;DHT22;6979;52.116;5.286;2024-02-04T06:13:50;13.60;99.90
13817;DHT22;6979;52.116;5.286;2024-02-04T06:16:17;13.60;99.90
13817;DHT22;6979;52.116;5.286;2024-02-04T06:18:44;13.60;99.90
13817;DHT22;6979;52.116;5.286;2024-02-04T06:21:12;13.60;99.90
13817;DHT22;6979;52.116;5.286;2024-02-04T06:23:39;13.60;99.90
13817;DHT22;6979;52.116;5.286;2024-02-04T06:26:06;13.60;99.90
13817;DHT22;6979;52.116;5.286;2024-02-04T06:28:32;13.60;99.90
13817;DHT22;6979;52.116;5.286;2024-02-04T06:31:00;13.60;99.90
13817;DHT22;6979;52.116;5.286;2024-02-04T06:33:26;13.60;99.90
13817;DHT22;6979;52.116;5.286;2024-02-04T06:35:53;13.60;99.90
13817;DHT22;6979;52.116;5.286;2024-02-04T06:38:21;13.70;99.90
13817;DHT22;6979;52.116;5.286;2024-02-04T06:40:48;13.70;99.90
13817;DHT22;6979;52.116;5.286;2024-02-04T06:43:15;13.70;99.90
13817;DHT22;6979;52.116;5.286;2024-02-04T06:45:42;13.70;99.90
13817;DHT22;6979;52.116;5.286;2024-02-04T06:48:09;13.70;99.90
13817;DHT22;6979;52.116;5.286;2024-02-04T06:50:36;13.70;99.90
13817;DHT22;6979;52.116;5.286;2024-02-04T06:53:03;13.70;99.90
13817;DHT22;6979;52.116;5.286;2024-02-04T06:55:31;13.70;99.90
13817;DHT22;6979;52.116;5.286;2024-02-04T06:57:58;13.70;99.90
13817;DHT22;6979;52.116;5.286;2024-02-04T07:00:25;13.80;99.90
13817;DHT22;6979;52.116;5.286;2024-02-04T07:02:52;13.80;99.90
13817;DHT22;6979;52.116;5.286;2024-02-04T07:05:19;13.80;99.90
13817;DHT22;6979;52.116;5.286;2024-02-04T07:07:48;13.80;99.90
13817;DHT22;6979;52.116;5.286;2024-02-04T07:10:15;13.80;99.90
13817;DHT22;6979;52.116;5.286;2024-02-04T07:12:43;13.80;99.90
13817;DHT22;6979;52.116;5.286;2024-02-04T07:15:10;13.90;99.90
13817;DHT22;6979;52.116;5.286;2024-02-04T07:17:37;13.90;99.90
13817;DHT22;6979;52.116;5.286;2024-02-04T07:20:05;13.90;99.90
13817;DHT22;6979;52.116;5.286;2024-02-04T07:22:32;13.90;99.90
13817;DHT22;6979;52.116;5.286;2024-02-04T07:25:01;14.00;99.90
13817;DHT22;6979;52.116;5.286;2024-02-04T07:27:29;14.00;99.90
13817;DHT22;6979;52.116;5.286;2024-02-04T07:29:59;14.00;99.90
13817;DHT22;6979;52.116;5.286;2024-02-04T07:32:26;14.00;99.90
13817;DHT22;6979;52.116;5.286;2024-02-04T07:34:52;14.00;99.90
13817;DHT22;6979;52.116;5.286;2024-02-04T07:37:19;14.00;99.90
13817;DHT22;6979;52.116;5.286;2024-02-04T07:39:46;14.00;99.90
13817;DHT22;6979;52.116;5.286;2024-02-04T07:42:13;14.00;99.90
13817;DHT22;6979;52.116;5.286;2024-02-04T07:44:40;14.10;99.90
13817;DHT22;6979;52.116;5.286;2024-02-04T07:47:08;14.10;99.90
13817;DHT22;6979;52.116;5.286;2024-02-04T07:49:35;14.10;99.90
13817;DHT22;6979;52.116;5.286;2024-02-04T07:52:02;14.10;99.90
13817;DHT22;6979;52.116;5.286;2024-02-04T07:54:29;14.10;99.90
13817;DHT22;6979;52.116;5.286;2024-02-04T07:56:59;14.10;99.90
13817;DHT22;6979;52.116;5.286;2024-02-04T07:59:26;14.10;99.90
13817;DHT22;6979;52.116;5.286;2024-02-04T08:01:52;14.20;99.90
13817;DHT22;6979;52.116;5.286;2024-02-04T08:04:20;14.20;99.90
13817;DHT22;6979;52.116;5.286;2024-02-04T08:06:47;14.20;99.90
13817;DHT22;6979;52.116;5.286;2024-02-04T08:09:14;14.20;99.90
13817;DHT22;6979;52.116;5.286;2024-02-04T08:11:41;14.20;99.90
13817;DHT22;6979;52.116;5.286;2024-02-04T08:14:08;14.20;99.90
13817;DHT22;6979;52.116;5.286;2024-02-04T08:16:35;14.20;99.90
13817;DHT22;6979;52.116;5.286;2024-02-04T08:19:01;14.20;99.90
13817;DHT22;6979;52.116;5.286;2024-02-04T08:21:30;14.20;99.90
13817;DHT22;6979;52.116;5.286;2024-02-04T08:23:58;14.20;99.90
13817;DHT22;6979;52.116;5.286;2024-02-04T08:26:25;14.30;99.90
13817;DHT22;6979;52.116;5.286;2024-02-04T08:28:51;14.30;99.90
13817;DHT22;6979;52.116;5.286;2024-02-04T08:31:18;14.30;99.90
13817;DHT22;6979;52.116;5.286;2024-02-04T08:33:45;14.30;99.90
13817;DHT22;6979;52.116;5.286;2024-02-04T08:36:12;14.30;99.90
13817;DHT22;6979;52.116;5.286;2024-02-04T08:38:42;14.30;99.90
13817;DHT22;6979;52.116;5.286;2024-02-04T08:41:09;14.30;99.90
13817;DHT22;6979;52.116;5.286;2024-02-04T08:43:36;14.30;99.90
13817;DHT22;6979;52.116;5.286;2024-02-04T08:46:04;14.30;99.90
13817;DHT22;6979;52.116;5.286;2024-02-04T08:48:34;14.30;99.90
13817;DHT22;6979;52.116;5.286;2024-02-04T08:51:02;14.40;99.90
13817;DHT22;6979;52.116;5.286;2024-02-04T08:53:29;14.40;99.90
13817;DHT22;6979;52.116;5.286;2024-02-04T08:55:57;14.30;99.90
13817;DHT22;6979;52.116;5.286;2024-02-04T08:58:24;14.30;99.90
13817;DHT22;6979;52.116;5.286;2024-02-04T09:00:50;14.30;99.90
13817;DHT22;6979;52.116;5.286;2024-02-04T09:03:17;14.30;99.90
13817;DHT22;6979;52.116;5.286;2024-02-04T09:05:44;14.30;99.90
13817;DHT22;6979;52.116;5.286;2024-02-04T09:08:16;14.30;99.90
13817;DHT22;6979;52.116;5.286;2024-02-04T09:10:43;14.30;99.90
13817;DHT22;6979;52.116;5.286;2024-02-04T09:13:11;14.30;99.90
13817;DHT22;6979;52.116;5.286;2024-02-04T09:15:38;14.40;99.90
13817;DHT22;6979;52.116;5.286;2024-02-04T09:18:05;14.40;99.90
13817;DHT22;6979;52.116;5.286;2024-02-04T09:20:32;14.40;99.90
13817;DHT22;6979;52.116;5.286;2024-02-04T09:22:59;14.40;99.90
13817;DHT22;6979;52.116;5.286;2024-02-04T09:25:26;14.40;99.90
13817;DHT22;6979;52.116;5.286;2024-02-04T09:27:52;14.50;99.90
13817;DHT22;6979;52.116;5.286;2024-02-04T09:30:23;14.50;99.90
13817;DHT22;6979;52.116;5.286;2024-02-04T09:32:50;14.50;99.90
13817;DHT22;6979;52.116;5.286;2024-02-04T09:35:17;14.60;99.90
13817;DHT22;6979;52.116;5.286;2024-02-04T09:37:46;14.60;99.90
13817;DHT22;6979;52.116;5.286;2024-02-04T09:40:14;14.60;99.90
13817;DHT22;6979;52.116;5.286;2024-02-04T09:42:41;14.60;99.90
13817;DHT22;6979;52.116;5.286;2024-02-04T09:45:09;14.70;99.90
13817;DHT22;6979;52.116;5.286;2024-02-04T09:47:38;14.70;99.90
13817;DHT22;6979;52.116;5.286;2024-02-04T09:50:06;14.70;99.90
13817;DHT22;6979;52.116;5.286;2024-02-04T09:52:35;14.70;99.90
13817;DHT22;6979;52.116;5.286;2024-02-04T09:55:07;14.70;99.90
13817;DHT22;6979;52.116;5.286;2024-02-04T09:57:36;14.80;99.90
13817;DHT22;6979;52.116;5.286;2024-02-04T10:00:03;14.80;99.90
13817;DHT22;6979;52.116;5.286;2024-02-04T10:02:42;14.80;99.90
13817;DHT22;6979;52.116;5.286;2024-02-04T10:05:23;14.80;99.90
13817;DHT22;6979;52.116;5.286;2024-02-04T10:07:50;14.80;99.90
13817;DHT22;6979;52.116;5.286;2024-02-04T10:10:17;14.80;99.90
13817;DHT22;6979;52.116;5.286;2024-02-04T10:12:44;14.80;99.90
13817;DHT22;6979;52.116;5.286;2024-02-04T10:15:10;14.80;99.90
13817;DHT22;6979;52.116;5.286;2024-02-04T10:17:45;14.90;99.90
13817;DHT22;6979;52.116;5.286;2024-02-04T10:20:14;14.90;99.90
13817;DHT22;6979;52.116;5.286;2024-02-04T10:22:41;14.90;99.90
13817;DHT22;6979;52.116;5.286;2024-02-04T10:25:09;14.90;99.90
13817;DHT22;6979;52.116;5.286;2024-02-04T10:27:37;14.90;99.90
13817;DHT22;6979;52.116;5.286;2024-02-04T10:30:06;14.90;99.90
13817;DHT22;6979;52.116;5.286;2024-02-04T10:32:33;14.90;99.90
13817;DHT22;6979;52.116;5.286;2024-02-04T10:35:02;15.00;99.90
13817;DHT22;6979;52.116;5.286;2024-02-04T10:37:30;15.00;99.90
13817;DHT22;6979;52.116;5.286;2024-02-04T10:39:57;15.00;99.90
13817;DHT22;6979;52.116;5.286;2024-02-04T10:42:26;15.10;99.90
13817;DHT22;6979;52.116;5.286;2024-02-04T10:44:54;15.10;99.90
13817;DHT22;6979;52.116;5.286;2024-02-04T10:47:23;15.10;99.90
13817;DHT22;6979;52.116;5.286;2024-02-04T10:49:51;15.10;99.90
13817;DHT22;6979;52.116;5.286;2024-02-04T10:52:22;15.10;99.90
13817;DHT22;6979;52.116;5.286;2024-02-04T10:54:50;15.20;99.90
13817;DHT22;6979;52.116;5.286;2024-02-04T10:57:21;15.20;99.90
13817;DHT22;6979;52.116;5.286;2024-02-04T10:59:49;15.20;99.90
13817;DHT22;6979;52.116;5.286;2024-02-04T11:02:19;15.20;99.90
13817;DHT22;6979;52.116;5.286;2024-02-04T11:04:48;15.20;99.90
13817;DHT22;6979;52.116;5.286;2024-02-04T11:07:17;15.20;99.90
13817;DHT22;6979;52.116;5.286;2024-02-04T11:09:46;15.20;99.90
13817;DHT22;6979;52.116;5.286;2024-02-04T11:12:18;15.20;99.90
13817;DHT22;6979;52.116;5.286;2024-02-04T11:14:50;15.20;99.90
13817;DHT22;6979;52.116;5.286;2024-02-04T11:17:29;15.20;99.90
13817;DHT22;6979;52.116;5.286;2024-02-04T11:20:15;15.10;99.90
13817;DHT22;6979;52.116;5.286;2024-02-04T11:23:05;15.10;99.90
13817;DHT22;6979;52.116;5.286;2024-02-04T11:25:47;15.10;99.90
13817;DHT22;6979;52.116;5.286;2024-02-04T11:28:19;15.00;99.90
13817;DHT22;6979;52.116;5.286;2024-02-04T11:30:48;15.00;99.90
13817;DHT22;6979;52.116;5.286;2024-02-04T11:33:18;14.90;99.90
13817;DHT22;6979;52.116;5.286;2024-02-04T11:35:45;14.90;99.90
13817;DHT22;6979;52.116;5.286;2024-02-04T11:38:17;14.90;99.90
13817;DHT22;6979;52.116;5.286;2024-02-04T11:40:46;14.80;99.90
13817;DHT22;6979;52.116;5.286;2024-02-04T11:43:14;14.80;99.90
13817;DHT22;6979;52.116;5.286;2024-02-04T11:45:43;14.80;99.90
13817;DHT22;6979;52.116;5.286;2024-02-04T11:48:11;14.80;99.90
13817;DHT22;6979;52.116;5.286;2024-02-04T11:50:39;14.80;99.90
13817;DHT22;6979;52.116;5.286;2024-02-04T11:53:07;14.80;99.90
13817;DHT22;6979;52.116;5.286;2024-02-04T11:55:35;14.80;99.90
13817;DHT22;6979;52.116;5.286;2024-02-04T11:58:06;14.80;99.90
13817;DHT22;6979;52.116;5.286;2024-02-04T12:00:33;14.80;99.90
13817;DHT22;6979;52.116;5.286;2024-02-04T12:03:00;14.80;99.90
13817;DHT22;6979;52.116;5.286;2024-02-04T12:05:30;14.80;99.90
13817;DHT22;6979;52.116;5.286;2024-02-04T12:07:58;14.90;99.90
13817;DHT22;6979;52.116;5.286;2024-02-04T12:10:26;14.90;99.90
13817;DHT22;6979;52.116;5.286;2024-02-04T12:12:53;14.90;99.90
13817;DHT22;6979;52.116;5.286;2024-02-04T12:15:25;14.90;99.90
13817;DHT22;6979;52.116;5.286;2024-02-04T12:17:56;14.90;99.90
13817;DHT22;6979;52.116;5.286;2024-02-04T12:20:35;14.90;99.90
13817;DHT22;6979;52.116;5.286;2024-02-04T12:23:04;14.90;99.90
13817;DHT22;6979;52.116;5.286;2024-02-04T12:25:37;15.00;99.90
13817;DHT22;6979;52.116;5.286;2024-02-04T12:28:07;15.00;99.90
13817;DHT22;6979;52.116;5.286;2024-02-04T12:30:36;15.00;99.90
13817;DHT22;6979;52.116;5.286;2024-02-04T12:33:05;15.00;99.90
13817;DHT22;6979;52.116;5.286;2024-02-04T12:35:33;15.00;99.90
13817;DHT22;6979;52.116;5.286;2024-02-04T12:38:00;15.10;99.90
13817;DHT22;6979;52.116;5.286;2024-02-04T12:40:30;15.10;99.90
13817;DHT22;6979;52.116;5.286;2024-02-04T12:42:59;15.10;99.90
13817;DHT22;6979;52.116;5.286;2024-02-04T12:45:27;15.20;99.90
13817;DHT22;6979;52.116;5.286;2024-02-04T12:47:57;15.20;99.90
13817;DHT22;6979;52.116;5.286;2024-02-04T12:50:24;15.20;99.90
13817;DHT22;6979;52.116;5.286;2024-02-04T12:53:02;15.20;99.90
13817;DHT22;6979;52.116;5.286;2024-02-04T12:55:29;15.30;99.90
13817;DHT22;6979;52.116;5.286;2024-02-04T12:58:04;15.30;99.90
13817;DHT22;6979;52.116;5.286;2024-02-04T13:00:32;15.30;99.90
13817;DHT22;6979;52.116;5.286;2024-02-04T13:03:00;15.30;99.90
13817;DHT22;6979;52.116;5.286;2024-02-04T13:05:28;15.30;99.90
13817;DHT22;6979;52.116;5.286;2024-02-04T13:07:57;15.30;99.90
13817;DHT22;6979;52.116;5.286;2024-02-04T13:10:24;15.30;99.90
13817;DHT22;6979;52.116;5.286;2024-02-04T13:12:58;15.30;99.90
13817;DHT22;6979;52.116;5.286;2024-02-04T13:15:27;15.30;99.90
13817;DHT22;6979;52.116;5.286;2024-02-04T13:17:54;15.30;99.90
13817;DHT22;6979;52.116;5.286;2024-02-04T13:20:23;15.40;99.90
13817;DHT22;6979;52.116;5.286;2024-02-04T13:22:50;15.40;99.90
13817;DHT22;6979;52.116;5.286;2024-02-04T13:25:19;15.40;99.90
13817;DHT22;6979;52.116;5.286;2024-02-04T13:27:49;15.40;99.90
13817;DHT22;6979;52.116;5.286;2024-02-04T13:30:17;15.40;99.90
13817;DHT22;6979;52.116;5.286;2024-02-04T13:32:45;15.50;99.90
13817;DHT22;6979;52.116;5.286;2024-02-04T13:35:12;15.50;99.90
13817;DHT22;6979;52.116;5.286;2024-02-04T13:37:44;15.50;99.90
13817;DHT22;6979;52.116;5.286;2024-02-04T13:40:14;15.50;99.90
13817;DHT22;6979;52.116;5.286;2024-02-04T13:42:41;15.50;99.90
13817;DHT22;6979;52.116;5.286;2024-02-04T13:45:08;15.50;99.90
13817;DHT22;6979;52.116;5.286;2024-02-04T13:47:35;15.50;99.90
13817;DHT22;6979;52.116;5.286;2024-02-04T13:50:02;15.40;99.90
13817;DHT22;6979;52.116;5.286;2024-02-04T13:52:29;15.40;99.90
13817;DHT22;6979;52.116;5.286;2024-02-04T13:54:57;15.40;99.90
13817;DHT22;6979;52.116;5.286;2024-02-04T13:57:24;15.40;99.90
13817;DHT22;6979;52.116;5.286;2024-02-04T13:59:51;15.40;99.90
13817;DHT22;6979;52.116;5.286;2024-02-04T14:02:18;15.30;99.90
13817;DHT22;6979;52.116;5.286;2024-02-04T14:04:45;15.30;99.90
13817;DHT22;6979;52.116;5.286;2024-02-04T14:07:12;15.30;99.90
13817;DHT22;6979;52.116;5.286;2024-02-04T14:09:39;15.30;99.90
13817;DHT22;6979;52.116;5.286;2024-02-04T14:12:07;15.30;99.90
13817;DHT22;6979;52.116;5.286;2024-02-04T14:14:34;15.30;99.90
13817;DHT22;6979;52.116;5.286;2024-02-04T14:17:07;15.20;99.90
13817;DHT22;6979;52.116;5.286;2024-02-04T14:19:35;15.20;99.90
13817;DHT22;6979;52.116;5.286;2024-02-04T14:22:02;15.20;99.90
13817;DHT22;6979;52.116;5.286;2024-02-04T14:24:32;15.20;99.90
13817;DHT22;6979;52.116;5.286;2024-02-04T14:26:59;15.20;99.90
13817;DHT22;6979;52.116;5.286;2024-02-04T14:29:27;15.20;99.90
13817;DHT22;6979;52.116;5.286;2024-02-04T14:31:54;15.20;99.90
13817;DHT22;6979;52.116;5.286;2024-02-04T14:34:22;15.20;99.90
13817;DHT22;6979;52.116;5.286;2024-02-04T14:36:48;15.20;99.90
13817;DHT22;6979;52.116;5.286;2024-02-04T14:39:15;15.20;99.90
13817;DHT22;6979;52.116;5.286;2024-02-04T14:41:42;15.20;99.90
13817;DHT22;6979;52.116;5.286;2024-02-04T14:44:09;15.20;99.90
13817;DHT22;6979;52.116;5.286;2024-02-04T14:46:38;15.30;99.90
13817;DHT22;6979;52.116;5.286;2024-02-04T14:49:08;15.30;99.90
13817;DHT22;6979;52.116;5.286;2024-02-04T14:51:38;15.30;99.90
13817;DHT22;6979;52.116;5.286;2024-02-04T14:54:06;15.30;99.90
13817;DHT22;6979;52.116;5.286;2024-02-04T14:56:37;15.30;99.90
13817;DHT22;6979;52.116;5.286;2024-02-04T14:59:04;15.30;99.90
13817;DHT22;6979;52.116;5.286;2024-02-04T15:01:32;15.30;99.90
13817;DHT22;6979;52.116;5.286;2024-02-04T15:04:03;15.30;99.90
13817;DHT22;6979;52.116;5.286;2024-02-04T15:06:31;15.30;99.90
13817;DHT22;6979;52.116;5.286;2024-02-04T15:09:00;15.40;99.90
13817;DHT22;6979;52.116;5.286;2024-02-04T15:11:28;15.30;99.90
13817;DHT22;6979;52.116;5.286;2024-02-04T15:13:56;15.40;99.90
13817;DHT22;6979;52.116;5.286;2024-02-04T15:16:24;15.40;99.90
13817;DHT22;6979;52.116;5.286;2024-02-04T15:18:52;15.40;99.90
13817;DHT22;6979;52.116;5.286;2024-02-04T15:21:20;15.40;99.90
13817;DHT22;6979;52.116;5.286;2024-02-04T15:23:50;15.40;99.90
13817;DHT22;6979;52.116;5.286;2024-02-04T15:26:17;15.40;99.90
13817;DHT22;6979;52.116;5.286;2024-02-04T15:28:47;15.30;99.90
13817;DHT22;6979;52.116;5.286;2024-02-04T15:31:15;15.30;99.90
13817;DHT22;6979;52.116;5.286;2024-02-04T15:33:42;15.30;99.90
13817;DHT22;6979;52.116;5.286;2024-02-04T15:36:09;15.30;99.90
13817;DHT22;6979;52.116;5.286;2024-02-04T15:38:38;15.30;99.90
13817;DHT22;6979;52.116;5.286;2024-02-04T15:41:05;15.40;99.90
13817;DHT22;6979;52.116;5.286;2024-02-04T15:43:31;15.30;99.90
13817;DHT22;6979;52.116;5.286;2024-02-04T15:45:59;15.30;99.90
13817;DHT22;6979;52.116;5.286;2024-02-04T15:48:36;15.40;99.90
13817;DHT22;6979;52.116;5.286;2024-02-04T15:51:04;15.40;99.90